createdAt,value
2022-12-25T00:01:57.534Z,10.02
2022-12-25T00:05:01.797Z,10.27
2022-12-25T00:08:05.489Z,11.85
2022-12-25T00:11:14.597Z,10.18
2022-12-25T00:14:19.363Z,13.73
2022-12-25T00:17:27.978Z,11.00
2022-12-25T00:20:32.326Z,10.80
2022-12-25T00:23:36.745Z,9.75
2022-12-25T00:26:41.648Z,11.95
2022-12-25T00:29:47.345Z,10.30
2022-12-25T00:32:50.425Z,10.52
2022-12-25T00:36:01.747Z,11.80
2022-12-25T00:39:04.806Z,10.57
2022-12-25T00:42:21.446Z,13.00
2022-12-25T00:45:27.410Z,13.50
2022-12-25T00:48:31.100Z,11.05
2022-12-25T00:51:36.199Z,11.50
2022-12-25T00:54:40.329Z,11.68
2022-12-25T00:57:44.651Z,12.93
2022-12-25T01:00:51.542Z,13.27
2022-12-25T01:03:55.280Z,11.38
2022-12-25T01:06:59.800Z,14.93
2022-12-25T01:10:20.581Z,11.38
2022-12-25T01:13:26.206Z,10.82
2022-12-25T01:16:32.907Z,13.48
2022-12-25T01:19:36.085Z,13.23
2022-12-25T01:22:40.682Z,10.90
2022-12-25T01:25:43.985Z,11.95
2022-12-25T01:28:48.932Z,12.35
2022-12-25T01:31:54.719Z,12.38
2022-12-25T01:34:58.333Z,11.63
2022-12-25T01:38:03.368Z,11.43
2022-12-25T01:41:09.106Z,12.07
2022-12-25T01:44:46.560Z,12.73
2022-12-25T01:47:52.998Z,9.75
2022-12-25T01:50:59.588Z,10.85
2022-12-25T01:54:07.338Z,11.97
2022-12-25T01:57:14.937Z,12.07
2022-12-25T02:00:18.802Z,13.32
2022-12-25T02:03:27.991Z,10.85
2022-12-25T02:06:32.047Z,12.48
2022-12-25T02:09:36.944Z,10.73
2022-12-25T02:12:43.396Z,10.32
2022-12-25T02:15:56.341Z,11.30
2022-12-25T02:19:11.475Z,10.38
2022-12-25T02:22:29.815Z,13.57
2022-12-25T02:25:43.908Z,10.70
2022-12-25T02:28:59.136Z,9.90
2022-12-25T02:32:09.577Z,11.05
2022-12-25T02:35:20.647Z,12.20
2022-12-25T02:38:28.593Z,8.93
2022-12-25T02:41:37.116Z,10.63
2022-12-25T02:45:05.396Z,11.65
2022-12-25T02:48:28.467Z,8.93
2022-12-25T02:51:53.468Z,9.50
2022-12-25T02:55:19.109Z,9.60
2022-12-25T02:58:44.103Z,8.87
2022-12-25T03:02:05.891Z,12.00
2022-12-25T03:05:32.366Z,10.65
2022-12-25T03:08:41.450Z,12.23
2022-12-25T03:11:46.356Z,10.50
2022-12-25T03:15:11.622Z,12.07
2022-12-25T03:18:22.849Z,11.63
2022-12-25T03:21:44.632Z,9.90
2022-12-25T03:25:06.817Z,12.18
2022-12-25T03:28:09.993Z,13.20
2022-12-25T03:31:18.453Z,12.37
2022-12-25T03:34:51.520Z,12.95
2022-12-25T03:38:34.405Z,12.80
2022-12-25T03:42:04.082Z,14.15
2022-12-25T03:45:30.039Z,12.43
2022-12-25T03:48:56.454Z,12.80
2022-12-25T03:52:23.840Z,12.63
2022-12-25T03:55:45.523Z,15.00
2022-12-25T03:59:23.248Z,14.32
2022-12-25T04:02:44.998Z,14.63
2022-12-25T04:06:07.315Z,16.90
2022-12-25T04:09:33.303Z,13.20
2022-12-25T04:12:54.529Z,14.65
2022-12-25T04:16:18.407Z,14.40
2022-12-25T04:19:42.298Z,14.23
2022-12-25T04:23:04.192Z,15.13
2022-12-25T04:26:27.843Z,13.60
2022-12-25T04:29:57.079Z,15.25
2022-12-25T04:33:19.264Z,15.02
2022-12-25T04:36:22.771Z,13.88
2022-12-25T04:39:27.975Z,11.60
2022-12-25T04:42:34.339Z,13.88
2022-12-25T04:45:37.506Z,13.45
2022-12-25T04:48:42.292Z,14.93
2022-12-25T04:51:44.999Z,12.43
2022-12-25T04:54:48.922Z,12.37
2022-12-25T04:57:53.013Z,13.43
2022-12-25T05:00:56.957Z,11.57
2022-12-25T05:03:59.746Z,13.80
2022-12-25T05:07:04.112Z,11.35
2022-12-25T05:10:09.412Z,17.67
2022-12-25T05:13:13.488Z,13.38
2022-12-25T05:16:19.187Z,25.40
2022-12-25T05:19:22.075Z,28.30
2022-12-25T05:22:26.305Z,22.63
2022-12-25T05:25:30.439Z,18.50
2022-12-25T05:28:35.334Z,14.40
2022-12-25T05:31:39.387Z,13.50
2022-12-25T05:34:42.124Z,13.50
2022-12-25T05:37:46.067Z,13.57
2022-12-25T05:40:50.088Z,12.07
2022-12-25T05:43:54.676Z,11.25
2022-12-25T05:46:58.722Z,12.50
2022-12-25T05:50:01.420Z,11.45
2022-12-25T05:53:08.565Z,13.88
2022-12-25T05:56:13.315Z,9.40
2022-12-25T05:59:17.370Z,9.60
2022-12-25T06:02:21.482Z,12.05
2022-12-25T06:05:24.308Z,10.32
2022-12-25T06:08:28.305Z,9.00
2022-12-25T06:11:32.290Z,10.33
2022-12-25T06:14:36.864Z,9.57
2022-12-25T06:17:40.949Z,10.98
2022-12-25T06:20:43.680Z,9.18
2022-12-25T06:23:48.265Z,11.15
2022-12-25T06:26:53.283Z,10.17
2022-12-25T06:29:57.765Z,10.02
2022-12-25T06:33:02.567Z,10.57
2022-12-25T06:36:08.175Z,11.38
2022-12-25T06:39:12.570Z,8.60
2022-12-25T06:42:16.954Z,10.10
2022-12-25T06:45:21.498Z,9.18
2022-12-25T06:48:25.799Z,9.48
2022-12-25T06:51:30.934Z,9.90
2022-12-25T06:54:35.265Z,9.23
2022-12-25T06:57:39.671Z,11.37
2022-12-25T07:00:44.231Z,9.38
2022-12-25T07:03:50.309Z,10.63
2022-12-25T07:06:53.693Z,10.27
2022-12-25T07:09:58.086Z,10.18
2022-12-25T07:13:02.449Z,9.93
2022-12-25T07:16:08.005Z,11.23
2022-12-25T07:19:12.294Z,9.52
2022-12-25T07:22:15.770Z,10.70
2022-12-25T07:25:19.951Z,11.50
2022-12-25T07:28:24.436Z,10.50
2022-12-25T07:31:28.937Z,12.10
2022-12-25T07:34:33.705Z,11.95
2022-12-25T07:37:37.062Z,9.68
2022-12-25T07:40:41.610Z,10.43
2022-12-25T07:43:44.572Z,11.33
2022-12-25T07:46:48.912Z,10.13
2022-12-25T07:49:51.957Z,10.18
2022-12-25T07:52:55.158Z,10.48
2022-12-25T07:56:04.819Z,11.38
2022-12-25T07:59:09.183Z,11.67
2022-12-25T08:02:14.074Z,10.10
2022-12-25T08:05:17.516Z,10.85
2022-12-25T08:08:20.549Z,11.80
2022-12-25T08:11:25.446Z,10.85
2022-12-25T08:14:30.005Z,9.43
2022-12-25T08:17:35.939Z,9.45
2022-12-25T08:20:40.298Z,12.52
2022-12-25T08:23:46.765Z,11.80
2022-12-25T08:26:49.913Z,11.32
2022-12-25T08:29:54.263Z,11.13
2022-12-25T08:32:59.040Z,10.75
2022-12-25T08:36:05.278Z,9.57
2022-12-25T08:39:08.633Z,9.85
2022-12-25T08:45:35.556Z,9.37
2022-12-25T08:48:42.733Z,10.88
2022-12-25T08:55:10.353Z,11.95
2022-12-25T08:58:14.694Z,13.77
2022-12-25T09:01:19.531Z,18.10
2022-12-25T09:04:24.238Z,12.00
2022-12-25T09:07:28.665Z,11.75
2022-12-25T09:10:33.505Z,11.32
2022-12-25T09:13:37.422Z,10.82
2022-12-25T09:16:41.982Z,10.67
2022-12-25T09:19:46.652Z,13.20
2022-12-25T09:22:51.155Z,15.32
2022-12-25T09:25:55.522Z,11.32
2022-12-25T09:28:59.026Z,13.48
2022-12-25T09:32:03.726Z,16.67
2022-12-25T09:35:09.429Z,10.98
2022-12-25T09:38:14.079Z,23.55
2022-12-25T09:41:28.071Z,12.00
2022-12-25T09:44:35.945Z,10.88
2022-12-25T09:47:43.771Z,11.53
2022-12-25T09:50:54.650Z,11.07
2022-12-25T09:54:03.041Z,16.73
2022-12-25T09:57:08.238Z,9.60
2022-12-25T10:00:16.721Z,11.13
2022-12-25T10:10:51.141Z,13.80
2022-12-25T10:14:12.929Z,14.68
2022-12-25T10:17:30.397Z,14.35
2022-12-25T10:20:45.421Z,17.73
2022-12-25T10:27:21.020Z,14.68
2022-12-25T10:30:27.803Z,15.38
2022-12-25T10:33:31.390Z,15.48
2022-12-25T10:36:36.239Z,14.60
2022-12-25T10:39:46.399Z,18.75
2022-12-25T10:42:54.158Z,16.83
2022-12-25T10:45:58.573Z,17.83
2022-12-25T10:49:03.987Z,18.00
2022-12-25T10:55:45.603Z,20.60
2022-12-25T10:58:48.995Z,19.48
2022-12-25T11:01:55.240Z,17.30
2022-12-25T11:05:03.886Z,19.77
2022-12-25T11:08:22.413Z,17.83
2022-12-25T11:11:32.686Z,17.35
2022-12-25T11:14:35.771Z,19.35
2022-12-25T11:17:40.211Z,19.75
2022-12-25T11:20:50.638Z,19.33
2022-12-25T11:27:28.189Z,21.80
2022-12-25T11:30:34.164Z,21.43
2022-12-25T11:33:47.896Z,22.50
2022-12-25T11:36:54.445Z,20.77
2022-12-25T11:39:58.077Z,21.65
2022-12-25T11:43:12.211Z,22.13
2022-12-25T11:46:22.508Z,24.63
2022-12-25T11:49:27.279Z,27.33
2022-12-25T11:52:35.111Z,25.05
2022-12-25T11:55:43.584Z,22.77
2022-12-25T11:58:53.216Z,23.37
2022-12-25T12:02:04.870Z,25.27
2022-12-25T12:05:21.407Z,22.70
2022-12-25T12:08:24.374Z,22.05
2022-12-25T12:11:35.966Z,19.98
2022-12-25T12:14:52.978Z,22.83
2022-12-25T12:17:57.702Z,24.70
2022-12-25T12:21:10.004Z,23.45
2022-12-25T12:24:21.567Z,23.58
2022-12-25T12:27:30.279Z,21.83
2022-12-25T12:30:36.401Z,20.17
2022-12-25T12:33:46.454Z,20.93
2022-12-25T12:36:50.044Z,25.23
2022-12-25T12:39:56.620Z,24.52
2022-12-25T12:43:04.246Z,28.55
2022-12-25T12:46:21.638Z,24.67
2022-12-25T12:49:33.587Z,27.50
2022-12-25T12:52:38.776Z,31.48
2022-12-25T12:55:45.100Z,25.00
2022-12-25T12:58:52.232Z,29.45
2022-12-25T13:02:11.143Z,27.37
2022-12-25T13:05:22.959Z,29.13
2022-12-25T13:08:48.171Z,26.92
2022-12-25T13:11:55.347Z,23.05
2022-12-25T13:15:04.060Z,27.40
2022-12-25T13:18:16.866Z,23.27
2022-12-25T13:21:25.439Z,24.70
2022-12-25T13:24:35.622Z,21.30
2022-12-25T13:27:43.158Z,23.25
2022-12-25T13:30:48.351Z,24.08
2022-12-25T13:33:59.376Z,25.73
2022-12-25T13:37:10.350Z,22.77
2022-12-25T13:40:23.598Z,31.27
2022-12-25T13:43:30.239Z,28.80
2022-12-25T13:46:40.257Z,27.30
2022-12-25T13:49:46.865Z,26.17
2022-12-25T13:52:49.792Z,27.20
2022-12-25T13:55:58.757Z,25.00
2022-12-25T13:59:09.181Z,25.95
2022-12-25T14:02:20.512Z,22.70
2022-12-25T14:05:29.156Z,21.83
2022-12-25T14:08:36.445Z,19.93
2022-12-25T14:11:42.121Z,22.33
2022-12-25T14:14:49.659Z,20.53
2022-12-25T14:17:53.592Z,18.40
2022-12-25T14:21:03.726Z,18.13
2022-12-25T14:24:14.334Z,14.48
2022-12-25T14:27:21.820Z,15.55
2022-12-25T14:30:31.210Z,17.50
2022-12-25T14:33:42.144Z,17.83
2022-12-25T14:36:53.432Z,16.08
2022-12-25T14:39:58.581Z,18.40
2022-12-25T14:43:10.913Z,16.38
2022-12-25T14:46:26.885Z,16.37
2022-12-25T14:49:34.102Z,14.63
2022-12-25T14:52:48.868Z,13.82
2022-12-25T14:55:55.642Z,16.15
2022-12-25T14:59:01.050Z,14.07
2022-12-25T15:02:05.271Z,16.70
2022-12-25T15:05:28.024Z,15.98
2022-12-25T15:08:33.586Z,15.85
2022-12-25T15:11:37.695Z,15.95
2022-12-25T15:14:40.475Z,14.20
2022-12-25T15:17:44.492Z,14.53
2022-12-25T15:20:47.473Z,14.82
2022-12-25T15:23:54.146Z,14.85
2022-12-25T15:27:01.159Z,17.50
2022-12-25T15:30:10.187Z,13.10
2022-12-25T15:33:15.709Z,15.20
2022-12-25T15:36:18.751Z,16.75
2022-12-25T15:39:23.224Z,13.85
2022-12-25T15:42:26.656Z,14.13
2022-12-25T15:45:32.368Z,19.75
2022-12-25T15:48:36.553Z,14.23
2022-12-25T15:51:39.740Z,13.25
2022-12-25T15:54:47.582Z,15.00
2022-12-25T15:57:52.165Z,18.38
2022-12-25T16:00:55.315Z,17.23
2022-12-25T16:03:59.350Z,16.50
2022-12-25T16:07:04.434Z,15.77
2022-12-25T16:10:20.034Z,15.13
2022-12-25T16:13:23.065Z,13.70
2022-12-25T16:16:26.318Z,16.63
2022-12-25T16:19:30.454Z,13.23
2022-12-25T16:22:39.886Z,14.02
2022-12-25T16:25:47.700Z,13.93
2022-12-25T16:28:51.966Z,15.05
2022-12-25T16:31:55.171Z,16.08
2022-12-25T16:34:59.950Z,12.37
2022-12-25T16:38:03.968Z,15.38
2022-12-25T16:41:09.463Z,16.75
2022-12-25T16:44:15.863Z,16.25
2022-12-25T16:47:18.954Z,16.77
2022-12-25T16:50:25.885Z,13.85
2022-12-25T16:53:32.839Z,16.58
2022-12-25T16:56:38.554Z,17.90
2022-12-25T16:59:41.586Z,17.75
2022-12-25T17:02:47.920Z,18.20
2022-12-25T17:05:52.146Z,13.57
2022-12-25T17:09:00.669Z,20.15
2022-12-25T17:12:07.637Z,14.77
2022-12-25T17:15:11.221Z,15.02
2022-12-25T17:18:14.606Z,15.88
2022-12-25T17:21:18.334Z,23.75
2022-12-25T17:24:24.160Z,17.42
2022-12-25T17:27:29.526Z,15.87
2022-12-25T17:30:33.204Z,14.00
2022-12-25T17:33:37.126Z,14.38
2022-12-25T17:36:40.080Z,14.60
2022-12-25T17:39:44.088Z,18.83
2022-12-25T17:42:49.184Z,14.87
2022-12-25T17:45:54.756Z,16.20
2022-12-25T17:49:01.135Z,18.02
2022-12-25T17:52:04.976Z,16.42
2022-12-25T17:55:09.857Z,18.77
2022-12-25T17:58:15.575Z,15.70
2022-12-25T18:01:20.032Z,19.63
2022-12-25T18:04:22.969Z,17.25
2022-12-25T18:07:26.746Z,17.75
2022-12-25T18:10:29.537Z,17.63
2022-12-25T18:13:36.605Z,17.87
2022-12-25T18:16:44.217Z,14.90
2022-12-25T18:19:50.846Z,15.85
2022-12-25T18:22:57.404Z,16.05
2022-12-25T18:26:04.245Z,17.52
2022-12-25T18:29:08.513Z,15.30
2022-12-25T18:32:11.404Z,16.92
2022-12-25T18:35:15.418Z,17.17
2022-12-25T18:38:19.834Z,18.63
2022-12-25T18:41:25.010Z,15.82
2022-12-25T18:44:31.150Z,15.80
2022-12-25T18:47:36.072Z,16.80
2022-12-25T18:50:42.575Z,13.95
2022-12-25T18:53:48.031Z,17.23
2022-12-25T18:56:53.405Z,15.38
2022-12-25T18:59:57.716Z,14.00
2022-12-25T19:06:25.183Z,14.00
2022-12-25T19:09:27.851Z,15.30
2022-12-25T19:12:31.905Z,14.52
2022-12-25T19:15:36.706Z,14.70
2022-12-25T19:18:40.216Z,13.88
2022-12-25T19:21:49.700Z,16.60
2022-12-25T19:24:53.658Z,13.60
2022-12-25T19:27:58.297Z,13.23
2022-12-25T19:31:03.179Z,13.87
2022-12-25T19:37:30.490Z,14.52
2022-12-25T19:40:38.020Z,16.23
2022-12-25T19:47:08.350Z,16.57
2022-12-25T19:50:15.030Z,14.50
2022-12-25T19:53:23.277Z,13.18
2022-12-25T19:59:50.484Z,13.57
2022-12-25T20:02:54.755Z,15.07
2022-12-25T20:05:58.913Z,17.08
2022-12-25T20:09:06.112Z,16.20
2022-12-25T20:15:31.921Z,18.42
2022-12-25T20:18:37.314Z,17.43
2022-12-25T20:21:43.567Z,15.70
2022-12-25T20:24:47.707Z,14.43
2022-12-25T20:27:50.448Z,17.55
2022-12-25T20:30:54.416Z,16.20
2022-12-25T20:34:09.431Z,14.53
2022-12-25T20:37:14.778Z,18.17
2022-12-25T20:40:20.262Z,15.07
2022-12-25T20:43:24.259Z,14.80
2022-12-25T20:46:27.425Z,17.27
2022-12-25T20:49:33.819Z,16.63
2022-12-25T20:52:36.584Z,16.30
2022-12-25T20:59:01.916Z,16.25
2022-12-25T21:02:06.373Z,15.05
2022-12-25T21:05:12.405Z,15.23
2022-12-25T21:08:15.451Z,16.08
2022-12-25T21:11:21.766Z,15.43
2022-12-25T21:14:25.791Z,15.18
2022-12-25T21:17:28.499Z,13.77
2022-12-25T21:20:33.848Z,14.13
2022-12-25T21:27:00.175Z,17.48
2022-12-25T21:30:15.208Z,14.57
2022-12-25T21:33:36.044Z,14.27
2022-12-25T21:40:04.166Z,13.32
2022-12-25T21:43:07.204Z,14.68
2022-12-25T21:46:14.217Z,15.43
2022-12-25T21:49:37.279Z,12.73
2022-12-25T21:52:41.680Z,12.00
2022-12-25T21:55:44.551Z,12.50
2022-12-25T21:58:49.285Z,13.38
2022-12-25T22:01:54.516Z,12.30
2022-12-25T22:04:58.588Z,14.52
2022-12-25T22:08:02.975Z,11.65
2022-12-25T22:11:06.071Z,12.20
2022-12-25T22:14:53.018Z,12.07
2022-12-25T22:18:15.271Z,13.30
2022-12-25T22:21:20.038Z,13.65
2022-12-25T22:24:25.447Z,12.00
2022-12-25T22:27:32.285Z,12.32
2022-12-25T22:30:36.241Z,12.02
2022-12-25T22:33:40.485Z,12.53
2022-12-25T22:36:43.300Z,14.30
2022-12-25T22:39:48.634Z,12.50
2022-12-25T22:42:54.911Z,11.60
2022-12-25T22:46:00.906Z,13.07
2022-12-25T22:49:05.051Z,12.80
2022-12-25T22:52:09.728Z,11.35
2022-12-25T22:55:18.819Z,11.30
2022-12-25T22:58:22.743Z,12.90
2022-12-25T23:01:25.527Z,10.98
2022-12-25T23:04:30.020Z,11.67
2022-12-25T23:07:34.191Z,11.73
2022-12-25T23:10:39.056Z,11.73
2022-12-25T23:14:00.703Z,10.85
2022-12-25T23:17:05.092Z,10.30
2022-12-25T23:20:26.593Z,11.77
2022-12-25T23:23:48.105Z,11.25
2022-12-25T23:26:53.622Z,9.98
2022-12-25T23:29:57.956Z,10.65
2022-12-25T23:33:00.732Z,10.48
2022-12-25T23:36:04.780Z,11.00
2022-12-25T23:39:10.326Z,10.77
2022-12-25T23:42:16.198Z,10.00
2022-12-25T23:45:20.305Z,8.75
2022-12-25T23:48:23.299Z,9.73
2022-12-25T23:51:27.432Z,8.93
2022-12-25T23:54:32.858Z,9.77
2022-12-25T23:57:42.231Z,10.32
